Time;durP1;ratioP1;P1;durP2;ratioP2;P2;SDS_P1;SDS_P2;PMS_P1;PMS_P2;Temp;Humidity;BMP_temperature;BMP_pressure;BME280_temperature;BME280_humidity;BME280_pressure;Samples;Min_cycle;Max_cycle;Signal;HPM_P1;HPM_P2
2022/08/07 00:00:35;;;;;;;8.15;2.63;;;;;;;16.12;40.98;102009.34;4989912;28;20046;-68
2022/08/07 00:03:06;;;;;;;8.32;2.40;;;;;;;16.15;41.15;102011.72;4994286;28;20050;-68
2022/08/07 00:05:35;;;;;;;7.68;2.95;;;;;;;16.08;41.25;102013.41;4995143;28;20467;-69
2022/08/07 00:08:04;;;;;;;7.18;2.40;;;;;;;16.10;41.53;102010.53;4995678;28;20097;-68
2022/08/07 00:10:34;;;;;;;6.70;2.53;;;;;;;16.10;41.33;102005.13;4995305;28;20049;-69
2022/08/07 00:13:03;;;;;;;6.82;2.50;;;;;;;16.04;41.56;102001.22;4991367;28;20121;-67
2022/08/07 00:15:50;;;;;;;7.70;2.85;;;;;;;16.02;41.79;102013.19;4993906;28;20050;-67
2022/08/07 00:18:20;;;;;;;6.72;2.78;;;;;;;15.98;41.82;102014.56;4993340;28;20061;-67
2022/08/07 00:20:55;;;;;;;6.50;2.67;;;;;;;15.93;41.94;102009.63;4994313;28;20050;-67
2022/08/07 00:23:27;;;;;;;7.53;3.00;;;;;;;15.87;42.25;102005.72;4992958;28;20050;-68
2022/08/07 00:25:56;;;;;;;9.50;2.60;;;;;;;15.82;42.45;102008.09;4993095;28;20050;-67
2022/08/07 00:28:31;;;;;;;9.02;2.92;;;;;;;15.83;42.59;102009.78;4994208;28;20046;-67
2022/08/07 00:31:04;;;;;;;6.57;2.65;;;;;;;15.83;42.59;102008.94;4987322;28;20126;-67
2022/08/07 00:33:39;;;;;;;8.07;2.85;;;;;;;15.77;42.88;102010.41;4992650;28;20106;-68
2022/08/07 00:36:07;;;;;;;4.35;2.35;;;;;;;15.69;43.09;102003.13;4993507;28;20077;-68
2022/08/07 00:38:36;;;;;;;5.05;2.83;;;;;;;15.66;43.20;101999.91;4993199;28;20042;-68
2022/08/07 00:41:05;;;;;;;6.57;2.55;;;;;;;15.67;43.25;101999.75;4995025;28;20500;-68
2022/08/07 00:43:40;;;;;;;7.68;2.72;;;;;;;15.67;43.39;102004.28;4993114;28;20042;-68
2022/08/07 00:46:26;;;;;;;10.43;3.22;;;;;;;15.57;43.47;102009.81;4992791;28;20474;-69
2022/08/07 00:48:53;;;;;;;9.68;3.20;;;;;;;15.64;43.31;102008.19;4976481;28;20417;-67
2022/08/07 00:51:19;;;;;;;8.27;2.70;;;;;;;15.63;43.39;102003.75;4992678;28;20499;-66
2022/08/07 00:53:46;;;;;;;15.13;2.35;;;;;;;15.60;43.36;102006.75;4991689;28;20133;-67
2022/08/07 00:56:21;;;;;;;5.60;2.70;;;;;;;15.60;43.26;102000.50;4992895;28;20081;-67
2022/08/07 00:58:48;;;;;;;5.38;2.50;;;;;;;15.49;43.66;102001.63;4993466;28;20458;-67
2022/08/07 01:01:17;;;;;;;5.72;2.50;;;;;;;15.48;43.63;102005.38;4992851;28;20054;-67
2022/08/07 01:03:44;;;;;;;10.75;2.60;;;;;;;15.54;43.10;102009.28;4992366;28;20065;-67
2022/08/07 01:09:53;;;;;;;6.30;2.40;;;;;;;15.46;43.05;102005.50;4993513;28;20062;-68
2022/08/07 01:12:33;;;;;;;11.88;2.40;;;;;;;15.47;42.80;102000.97;4991203;28;20050;-67
2022/08/07 01:15:01;;;;;;;4.72;2.30;;;;;;;15.47;43.08;102006.38;4992323;28;20046;-68
2022/08/07 01:17:30;;;;;;;4.90;2.10;;;;;;;15.52;42.82;102001.31;4985410;28;20153;-68
2022/08/07 01:20:05;;;;;;;4.28;2.40;;;;;;;15.45;43.37;102001.13;4992776;28;20104;-68
2022/08/07 01:22:35;;;;;;;5.75;2.22;;;;;;;15.49;43.03;102002.47;4992078;28;20069;-68
2022/08/07 01:25:02;;;;;;;3.45;2.10;;;;;;;15.51;43.23;101994.22;4992691;28;20073;-68
2022/08/07 01:27:49;;;;;;;4.70;2.10;;;;;;;15.48;43.18;101999.97;4992707;28;20057;-68
2022/08/07 01:30:17;;;;;;;3.75;1.80;;;;;;;15.46;43.26;101993.84;4992473;28;20054;-68
2022/08/07 01:32:44;;;;;;;9.30;2.53;;;;;;;15.47;43.51;102001.81;4992111;28;20500;-68
2022/08/07 01:35:11;;;;;;;9.27;2.30;;;;;;;15.46;43.35;101991.16;4991514;28;20054;-68
2022/08/07 01:37:42;;;;;;;5.70;2.20;;;;;;;15.39;43.60;101999.06;4992204;28;20068;-68
2022/08/07 01:40:11;;;;;;;6.22;2.75;;;;;;;15.38;43.81;101996.53;4992119;28;20061;-68
2022/08/07 01:42:40;;;;;;;6.03;2.13;;;;;;;15.37;43.98;101997.53;4992687;28;20042;-68
2022/08/07 01:45:25;;;;;;;3.60;2.00;;;;;;;15.32;44.05;101995.28;4992058;28;20058;-68
2022/08/07 01:48:05;;;;;;;5.17;2.50;;;;;;;15.27;44.21;101996.81;4992171;28;20113;-66
2022/08/07 01:50:55;;;;;;;5.60;2.40;;;;;;;15.19;44.44;101998.44;4991884;28;20062;-68
2022/08/07 01:53:28;;;;;;;9.63;2.30;;;;;;;15.20;44.63;102002.00;4984610;28;20050;-68
2022/08/07 01:56:28;;;;;;;3.60;2.25;;;;;;;15.12;45.02;102005.50;4990869;28;20049;-68
2022/08/07 01:59:05;;;;;;;5.80;2.25;;;;;;;15.11;45.24;102001.09;4991395;28;20461;-68
2022/08/07 02:01:36;;;;;;;10.10;2.95;;;;;;;15.08;45.26;102003.25;4992764;28;20129;-68
2022/08/07 02:04:31;;;;;;;9.13;3.28;;;;;;;15.05;45.43;102004.44;4992442;28;20046;-68
2022/08/07 02:07:00;;;;;;;5.78;2.70;;;;;;;15.05;45.62;102003.56;4991712;28;20050;-68
2022/08/07 02:09:31;;;;;;;6.28;2.53;;;;;;;14.97;45.49;102002.50;4991296;28;20057;-68
2022/08/07 02:12:20;;;;;;;5.90;2.45;;;;;;;14.98;45.74;101997.94;4990944;28;20402;-68
2022/08/07 02:14:59;;;;;;;5.97;2.30;;;;;;;14.99;45.43;101999.66;4991066;28;20368;-68
2022/08/07 02:17:27;;;;;;;7.53;2.45;;;;;;;15.01;45.44;101995.78;4991302;28;20066;-68
2022/08/07 02:20:01;;;;;;;11.02;2.40;;;;;;;14.98;45.54;101988.00;4991838;28;20073;-68
2022/08/07 02:22:37;;;;;;;6.88;2.20;;;;;;;14.88;45.77;101999.94;4991087;28;20046;-68
2022/08/07 02:25:12;;;;;;;5.60;2.20;;;;;;;14.87;45.77;102003.63;4991027;28;20042;-68
2022/08/07 02:27:46;;;;;;;4.68;1.90;;;;;;;14.88;45.62;102005.34;4992079;28;20089;-68
2022/08/07 02:30:18;;;;;;;5.07;1.98;;;;;;;14.90;44.95;101998.75;4991057;28;20049;-68
2022/08/07 02:32:46;;;;;;;11.30;2.13;;;;;;;14.88;45.58;101997.22;4973826;28;20129;-68
2022/08/07 02:35:35;;;;;;;8.82;2.40;;;;;;;14.87;45.48;102000.91;4990432;28;20129;-68
2022/08/07 02:38:27;;;;;;;7.15;2.28;;;;;;;14.89;45.50;101997.06;4984748;28;20046;-68
2022/08/07 02:40:59;;;;;;;6.47;2.58;;;;;;;14.84;45.50;102001.22;4970410;28;20104;-68
2022/08/07 02:43:26;;;;;;;7.75;2.35;;;;;;;14.86;45.57;102004.63;4991018;28;20050;-68
2022/08/07 02:45:57;;;;;;;9.38;3.00;;;;;;;14.76;45.73;102002.00;4992603;28;20478;-68
2022/08/07 02:48:28;;;;;;;4.80;2.40;;;;;;;14.84;45.52;102001.22;4991835;28;20070;-68
2022/08/07 02:50:55;;;;;;;9.73;2.95;;;;;;;14.82;45.76;101997.84;4992400;28;20049;-68
2022/08/07 02:53:33;;;;;;;10.00;2.50;;;;;;;14.84;45.67;101993.13;4991432;28;20479;-68
2022/08/07 02:56:07;;;;;;;5.22;1.90;;;;;;;14.83;45.74;101994.13;4989872;28;20085;-68
2022/08/07 02:58:50;;;;;;;7.40;2.13;;;;;;;14.84;45.67;101985.84;4991986;28;20058;-68
2022/08/07 03:01:23;;;;;;;9.75;2.45;;;;;;;14.82;45.73;101987.88;4991486;28;20125;-68
2022/08/07 03:04:04;;;;;;;7.80;2.30;;;;;;;14.76;45.80;101988.50;4980883;28;20046;-68
2022/08/07 03:06:40;;;;;;;7.28;2.63;;;;;;;14.86;45.52;101996.53;4992704;28;20107;-67
2022/08/07 03:09:10;;;;;;;4.68;2.40;;;;;;;14.86;45.76;101994.66;4995347;28;20104;-67
2022/08/07 03:11:38;;;;;;;5.25;1.77;;;;;;;14.83;45.87;102002.25;4995004;28;20214;-67
2022/08/07 03:14:24;;;;;;;5.07;2.50;;;;;;;14.82;45.86;101996.00;4985249;28;20474;-67
2022/08/07 03:16:54;;;;;;;5.65;2.55;;;;;;;14.81;45.66;101996.13;4995770;28;20046;-67
2022/08/07 03:19:21;;;;;;;10.13;2.40;;;;;;;14.79;45.54;102000.88;4994706;28;20093;-67
2022/08/07 03:21:49;;;;;;;12.18;2.50;;;;;;;14.77;45.15;101993.78;4977720;28;20060;-68
2022/08/07 03:24:17;;;;;;;7.05;2.42;;;;;;;14.66;45.68;101998.53;4995150;28;20054;-68
2022/08/07 03:26:58;;;;;;;7.07;2.20;;;;;;;14.72;45.79;102006.88;4995384;28;20453;-68
2022/08/07 03:29:30;;;;;;;7.57;2.60;;;;;;;14.75;45.68;101998.47;4994819;28;20486;-68
2022/08/07 03:32:03;;;;;;;10.25;2.30;;;;;;;14.74;45.17;102002.19;4995360;28;20073;-68
2022/08/07 03:34:35;;;;;;;10.10;2.47;;;;;;;14.73;44.88;102002.31;4994999;28;20129;-67
2022/08/07 03:37:20;;;;;;;9.45;2.42;;;;;;;14.65;44.87;102003.09;5025279;27;20400;-68
2022/08/07 03:39:53;;;;;;;11.73;2.33;;;;;;;14.70;44.84;102002.59;5028658;28;20042;-68
2022/08/07 03:42:41;;;;;;;8.20;2.80;;;;;;;14.69;45.16;102003.63;5024326;28;20041;-68
2022/08/07 03:45:10;;;;;;;5.32;2.97;;;;;;;14.63;45.35;101999.69;5026992;28;20449;-67
2022/08/07 03:47:37;;;;;;;7.22;2.90;;;;;;;14.72;45.53;102014.16;5028856;28;20075;-67
2022/08/07 03:50:18;;;;;;;4.80;2.05;;;;;;;14.70;45.69;102010.69;5028198;28;20049;-67
2022/08/07 03:52:50;;;;;;;4.07;1.83;;;;;;;14.65;45.02;102007.63;5028163;28;20054;-67
2022/08/07 03:55:17;;;;;;;8.75;2.53;;;;;;;14.65;44.57;102008.47;5028378;28;20566;-67
2022/08/07 03:57:46;;;;;;;4.20;2.33;;;;;;;14.60;44.77;102009.94;5028583;28;20045;-67
2022/08/07 04:00:34;;;;;;;5.68;2.30;;;;;;;14.53;44.78;102009.72;5028147;28;20481;-67
2022/08/07 04:03:02;;;;;;;6.28;2.30;;;;;;;14.55;44.74;102007.72;5027625;28;20042;-68
2022/08/07 04:05:34;;;;;;;5.93;2.33;;;;;;;14.54;44.87;102012.28;5028185;28;20517;-67
2022/08/07 04:08:12;;;;;;;8.60;2.30;;;;;;;14.47;44.77;102011.19;5028785;28;20053;-68
2022/08/07 04:10:44;;;;;;;10.30;2.22;;;;;;;14.34;44.99;102010.72;5028803;28;20095;-67
2022/08/07 04:13:33;;;;;;;9.90;2.80;;;;;;;14.40;44.87;102014.69;5029322;28;20382;-67
2022/08/07 04:16:19;;;;;;;10.88;2.35;;;;;;;14.44;44.87;102011.50;5044071;28;20052;-67
2022/08/07 04:19:00;;;;;;;7.25;2.92;;;;;;;14.47;44.91;102007.66;5047940;28;20037;-67
2022/08/07 04:21:41;;;;;;;5.90;2.75;;;;;;;14.54;44.71;102006.03;5048253;28;20041;-68
2022/08/07 04:24:26;;;;;;;10.68;3.00;;;;;;;14.55;44.83;102013.13;5048852;28;20141;-67
2022/08/07 04:27:01;;;;;;;7.93;2.35;;;;;;;14.49;44.82;102016.44;5048166;28;20052;-67
2022/08/07 04:29:30;;;;;;;6.80;2.42;;;;;;;14.56;44.61;102011.25;5046449;28;20375;-67
2022/08/07 04:32:17;;;;;;;8.35;3.15;;;;;;;14.33;45.01;102014.44;5047045;28;20051;-67
2022/08/07 04:35:04;;;;;;;12.02;3.00;;;;;;;14.42;44.61;102013.50;5046382;28;20120;-67
2022/08/07 04:37:34;;;;;;;5.15;2.15;;;;;;;14.21;45.05;102021.88;5046991;28;20091;-67
2022/08/07 04:40:21;;;;;;;8.20;2.40;;;;;;;14.38;44.82;102017.50;5046828;28;20041;-67
2022/08/07 04:42:55;;;;;;;6.15;2.63;;;;;;;14.29;44.92;102016.59;5047374;28;20396;-68
2022/08/07 04:45:54;;;;;;;11.82;2.85;;;;;;;14.22;45.17;102022.72;5046831;28;20124;-67
2022/08/07 04:48:48;;;;;;;7.07;2.80;;;;;;;14.23;45.24;102022.59;5035025;28;20053;-67
2022/08/07 04:51:30;;;;;;;7.45;2.60;;;;;;;14.35;44.42;102028.63;5032909;28;20080;-67
2022/08/07 04:54:39;;;;;;;5.32;2.20;;;;;;;14.37;44.32;102026.63;5034407;28;20048;-67
2022/08/07 04:57:29;;;;;;;4.97;2.40;;;;;;;14.49;44.08;102030.78;5033028;28;20049;-68
2022/08/07 05:00:21;;;;;;;3.85;2.33;;;;;;;14.34;44.17;102026.09;5033854;28;20467;-68
2022/08/07 05:03:27;;;;;;;9.77;3.20;;;;;;;14.58;43.92;102029.00;5034285;28;20045;-68
2022/08/07 05:06:23;;;;;;;5.05;2.45;;;;;;;14.52;43.90;102025.06;5024557;28;20049;-68
2022/08/07 05:09:20;;;;;;;5.50;2.53;;;;;;;14.69;43.71;102026.06;5043401;28;20057;-68
2022/08/07 05:12:12;;;;;;;7.25;2.92;;;;;;;14.75;43.68;102030.88;5033500;28;20049;-68
2022/08/07 05:14:54;;;;;;;5.38;2.50;;;;;;;14.82;43.42;102031.13;5027704;28;20509;-68
2022/08/07 05:17:31;;;;;;;6.43;2.50;;;;;;;14.99;43.09;102032.09;5032951;28;20468;-68
2022/08/07 05:20:23;;;;;;;8.65;2.72;;;;;;;15.10;42.98;102029.13;5033811;28;20050;-68
2022/08/07 05:22:56;;;;;;;5.40;2.30;;;;;;;15.08;42.84;102041.94;5032861;28;20409;-68
2022/08/07 05:25:25;;;;;;;4.28;2.20;;;;;;;15.11;42.50;102040.78;5033054;28;20073;-67
2022/08/07 05:28:14;;;;;;;4.38;2.10;;;;;;;14.96;42.77;102037.81;5033110;28;20049;-68
2022/08/07 05:30:51;;;;;;;7.00;3.13;;;;;;;15.05;42.76;102039.59;5033078;28;20041;-67
2022/08/07 05:33:19;;;;;;;6.60;2.50;;;;;;;14.95;42.81;102044.22;5024614;28;20145;-67
2022/08/07 05:35:49;;;;;;;5.20;2.10;;;;;;;14.87;43.15;102044.16;5032721;28;20517;-67
2022/08/07 05:38:20;;;;;;;5.72;2.42;;;;;;;15.07;42.81;102040.25;5032519;28;20053;-68
2022/08/07 05:41:08;;;;;;;5.25;2.20;;;;;;;15.15;42.76;102044.88;5031892;28;20049;-67
2022/08/07 05:43:45;;;;;;;7.43;2.28;;;;;;;15.37;42.65;102048.91;5033411;28;20064;-67
2022/08/07 05:46:34;;;;;;;19.30;9.48;;;;;;;15.38;42.54;102045.19;5027637;28;20056;-67
2022/08/07 05:49:04;;;;;;;6.13;3.08;;;;;;;15.33;42.25;102044.81;5032906;28;20049;-67
2022/08/07 05:51:40;;;;;;;6.38;2.08;;;;;;;15.45;41.72;102051.66;5033478;28;20045;-67
2022/08/07 05:54:08;;;;;;;5.45;2.03;;;;;;;15.49;41.74;102044.91;5032745;28;20489;-71
2022/08/07 05:56:56;;;;;;;8.15;2.63;;;;;;;15.35;41.54;102048.22;5031454;28;20052;-67
2022/08/07 05:59:25;;;;;;;4.82;2.40;;;;;;;15.43;41.49;102051.81;5030490;28;20141;-65
2022/08/07 06:01:55;;;;;;;6.35;2.03;;;;;;;15.56;41.34;102045.97;5032882;28;20515;-65
2022/08/07 06:04:23;;;;;;;5.45;2.53;;;;;;;15.43;41.14;102051.81;5032120;28;20049;-66
2022/08/07 06:06:58;;;;;;;5.72;2.15;;;;;;;15.37;40.97;102052.47;5032738;28;20045;-66
2022/08/07 06:09:30;;;;;;;4.43;1.83;;;;;;;15.59;40.63;102052.91;5031973;28;20041;-66
2022/08/07 06:12:17;;;;;;;6.47;1.85;;;;;;;15.64;40.62;102047.88;5031802;28;20056;-67
2022/08/07 06:14:47;;;;;;;10.45;3.17;;;;;;;15.81;40.43;102052.41;5032048;28;20053;-66
2022/08/07 06:17:17;;;;;;;9.95;2.08;;;;;;;15.72;40.57;102053.38;5031799;28;20053;-66
2022/08/07 06:19:49;;;;;;;4.50;1.80;;;;;;;15.76;40.10;102056.59;5030790;28;20125;-66
2022/08/07 06:22:31;;;;;;;6.80;2.33;;;;;;;15.96;39.36;102063.44;5026541;28;20131;-66
2022/08/07 06:25:05;;;;;;;5.35;2.13;;;;;;;16.01;39.22;102058.38;5042274;28;20045;-66
2022/08/07 06:27:36;;;;;;;3.38;1.70;;;;;;;16.04;39.52;102052.63;5032539;28;20064;-65
2022/08/07 06:30:22;;;;;;;7.65;1.67;;;;;;;16.24;38.04;102055.91;5031584;28;20053;-67
2022/08/07 06:33:02;;;;;;;2.63;1.40;;;;;;;16.27;38.03;102054.75;5031926;28;20045;-67
2022/08/07 06:35:29;;;;;;;9.95;1.75;;;;;;;16.29;37.60;102064.38;5030958;28;20065;-66
2022/08/07 06:38:14;;;;;;;8.85;1.83;;;;;;;16.33;37.95;102051.34;5026785;28;20402;-66
2022/08/07 06:40:49;;;;;;;3.97;1.33;;;;;;;16.53;38.08;102060.91;5031599;28;20132;-66
2022/08/07 06:43:19;;;;;;;;;;;;;;;16.56;37.27;102066.00;5030759;28;20139;-65
2022/08/07 06:45:48;;;;;;;6.55;2.05;;;;;;;16.80;36.99;102062.47;5031351;28;19950;-66
2022/08/07 06:48:15;;;;;;;7.50;1.90;;;;;;;16.96;36.60;102067.06;5025097;28;20132;-65
2022/08/07 06:50:53;;;;;;;7.43;1.80;;;;;;;17.07;36.42;102066.69;5030830;28;20061;-65
2022/08/07 06:53:21;;;;;;;4.45;1.77;;;;;;;17.16;36.33;102066.69;5032169;28;20515;-66
2022/08/07 06:56:10;;;;;;;6.25;1.70;;;;;;;17.32;35.80;102062.09;5028866;28;20049;-66
2022/08/07 06:58:42;;;;;;;4.45;2.28;;;;;;;17.44;35.93;102067.19;5031683;28;20103;-66
2022/08/07 07:01:32;;;;;;;4.00;1.85;;;;;;;17.06;36.72;102058.72;5031703;28;20126;-66
2022/08/07 07:04:09;;;;;;;8.48;2.13;;;;;;;17.93;34.08;102057.03;5031809;28;20458;-66
2022/08/07 07:06:57;;;;;;;5.13;2.00;;;;;;;18.22;34.58;102055.53;5031599;28;20418;-66
2022/08/07 07:09:30;;;;;;;6.07;2.40;;;;;;;18.35;33.42;102057.69;5031529;28;20378;-66
2022/08/07 07:12:13;;;;;;;8.52;1.80;;;;;;;18.12;33.53;102065.75;5029935;28;20453;-66
2022/08/07 07:15:16;;;;;;;4.75;1.80;;;;;;;18.23;33.02;102063.50;5030418;28;20049;-66
2022/08/07 07:17:57;;;;;;;5.93;2.10;;;;;;;18.97;32.77;102063.88;5029918;28;20387;-66
2022/08/07 07:20:33;;;;;;;6.85;1.75;;;;;;;19.52;31.29;102064.53;5030451;28;20045;-66
2022/08/07 07:23:02;;;;;;;7.90;2.05;;;;;;;19.61;30.71;102057.94;5030623;28;20071;-66
2022/08/07 07:25:53;;;;;;;6.53;1.67;;;;;;;19.26;32.38;102062.25;5029291;28;20045;-66
2022/08/07 07:28:48;;;;;;;3.75;1.77;;;;;;;19.40;30.76;102066.00;5030984;28;20046;-66
2022/08/07 07:31:39;;;;;;;5.63;1.90;;;;;;;19.75;31.52;102060.88;5028219;28;20045;-67
2022/08/07 07:34:16;;;;;;;3.83;1.48;;;;;;;20.42;29.80;102061.53;5030386;28;20071;-67
2022/08/07 07:36:46;;;;;;;8.10;1.90;;;;;;;19.71;30.28;102057.69;5030051;28;20041;-67
2022/08/07 07:39:21;;;;;;;4.40;1.60;;;;;;;19.58;29.97;102055.59;5030876;28;20053;-66
2022/08/07 07:41:51;;;;;;;4.13;1.50;;;;;;;20.78;28.62;102047.00;5031289;28;20064;-67
2022/08/07 07:44:40;;;;;;;7.10;1.63;;;;;;;21.06;28.71;102046.19;5032192;28;20056;-66
2022/08/07 07:47:08;;;;;;;3.70;1.45;;;;;;;21.81;27.50;102041.88;5031983;28;20076;-66
2022/08/07 07:49:51;;;;;;;5.40;1.48;;;;;;;22.06;26.65;102032.09;5029772;28;20103;-67
2022/08/07 07:52:40;;;;;;;5.63;1.50;;;;;;;22.45;26.11;102035.13;5029600;28;20045;-67
2022/08/07 07:55:08;;;;;;;6.05;1.73;;;;;;;22.19;26.46;102038.66;5027649;28;20053;-66
2022/08/07 07:57:39;;;;;;;4.43;1.50;;;;;;;21.41;28.83;102033.44;5031353;28;20519;-67
2022/08/07 08:00:19;;;;;;;9.52;1.58;;;;;;;22.92;25.27;102022.38;5030509;28;20042;-67
2022/08/07 08:03:05;;;;;;;1.80;1.25;;;;;;;23.10;24.74;102025.31;5030672;28;20477;-67
2022/08/07 08:05:38;;;;;;;2.97;1.40;;;;;;;23.01;25.62;102021.09;5030690;28;20068;-67
2022/08/07 08:08:20;;;;;;;2.85;1.38;;;;;;;23.06;25.87;102023.22;5030684;28;20060;-67
2022/08/07 08:11:04;;;;;;;7.30;1.80;;;;;;;22.75;25.26;102022.78;5031076;28;20052;-67
2022/08/07 08:13:31;;;;;;;8.77;1.48;;;;;;;22.36;27.45;102023.56;5030785;28;20049;-67
2022/08/07 08:16:08;;;;;;;6.57;1.65;;;;;;;22.58;26.68;102016.06;5029550;28;20057;-66
2022/08/07 08:18:38;;;;;;;6.03;1.33;;;;;;;22.91;25.47;102017.94;5030648;28;20131;-66
2022/08/07 08:27:03;;;;;;;3.72;1.55;;;;;;;21.74;27.63;102013.66;5031001;28;20129;-66
2022/08/07 08:27:14;;;;;;;4.88;2.15;;;;;;;22.16;26.37;102012.59;5033605;28;20081;-67
2022/08/07 08:29:45;;;;;;;5.10;1.67;;;;;;;22.59;27.22;102009.53;5034242;28;20112;-67
2022/08/07 08:32:24;;;;;;;6.72;1.67;;;;;;;22.79;26.84;102007.63;5034073;28;20615;-67
2022/08/07 08:35:08;;;;;;;6.75;1.80;;;;;;;23.12;26.41;102011.41;5031967;28;20107;-68
2022/08/07 08:37:36;;;;;;;6.32;1.23;;;;;;;23.16;25.64;102002.59;5033807;28;20049;-68
2022/08/07 08:40:29;;;;;;;5.47;1.23;;;;;;;22.58;26.05;102010.59;5033291;28;20054;-67
2022/08/07 08:43:30;;;;;;;4.43;1.48;;;;;;;23.94;24.06;102007.19;5033559;28;20462;-68
2022/08/07 08:46:20;;;;;;;5.60;1.40;;;;;;;23.60;25.08;102005.63;5013761;28;20057;-68
2022/08/07 08:49:06;;;;;;;2.05;1.10;;;;;;;23.33;24.38;102002.13;5014367;28;20069;-68
2022/08/07 08:51:45;;;;;;;5.00;1.63;;;;;;;23.91;24.01;101999.41;5015144;28;20041;-68
2022/08/07 08:54:54;;;;;;;3.90;1.50;;;;;;;23.14;25.93;101988.25;5014980;28;20049;-67
2022/08/07 08:58:02;;;;;;;3.38;1.45;;;;;;;23.24;24.38;101991.41;5014044;28;20046;-67
2022/08/07 09:00:34;;;;;;;5.85;1.70;;;;;;;22.95;25.88;101994.59;4972471;28;20454;-68
2022/08/07 09:03:31;;;;;;;4.03;1.30;;;;;;;22.76;26.14;101990.81;4972604;28;20600;-67
2022/08/07 09:06:37;;;;;;;3.67;1.63;;;;;;;21.75;27.29;101990.75;4972581;28;20051;-67
2022/08/07 09:09:34;;;;;;;3.30;1.42;;;;;;;22.45;26.45;101994.13;4972121;28;20059;-67
2022/08/07 09:12:20;;;;;;;6.53;1.27;;;;;;;21.88;26.93;101987.28;4962783;28;20047;-67
2022/08/07 09:15:06;;;;;;;5.97;1.50;;;;;;;23.72;24.65;101987.47;4973624;28;20069;-68
2022/08/07 09:18:07;;;;;;;4.22;1.75;;;;;;;23.48;23.81;101978.06;4971777;28;20047;-67
2022/08/07 09:21:04;;;;;;;13.32;2.10;;;;;;;22.99;25.65;101990.38;4983950;28;20058;-67
2022/08/07 09:23:57;;;;;;;10.35;1.73;;;;;;;23.15;25.12;101989.94;4991511;28;20050;-67
2022/08/07 09:27:07;;;;;;;9.02;1.30;;;;;;;22.78;25.52;101978.59;4990912;28;20043;-67
2022/08/07 09:29:47;;;;;;;4.68;1.40;;;;;;;23.66;24.22;101974.63;4989450;28;20052;-67
2022/08/07 09:33:00;;;;;;;8.93;1.25;;;;;;;24.81;22.52;101974.53;4991012;28;20050;-67
2022/08/07 09:36:08;;;;;;;2.42;1.13;;;;;;;25.11;21.81;101970.06;5012480;28;20144;-67
2022/08/07 09:39:13;;;;;;;4.05;1.58;;;;;;;25.26;21.81;101966.09;5013403;28;20042;-66
2022/08/07 09:42:38;;;;;;;6.95;1.55;;;;;;;24.87;22.09;101959.91;4990063;28;20054;-67
2022/08/07 09:45:33;;;;;;;5.28;1.30;;;;;;;25.04;22.44;101961.03;4991472;28;20671;-66
2022/08/07 09:49:04;;;;;;;5.10;1.38;;;;;;;25.90;20.60;101961.94;4989944;28;20054;-68
2022/08/07 09:52:03;;;;;;;7.07;1.55;;;;;;;24.59;23.52;101963.97;4943231;29;20039;-66
2022/08/07 09:55:28;;;;;;;6.25;1.35;;;;;;;23.92;24.21;101949.03;4951373;28;20128;-66
2022/08/07 09:58:34;;;;;;;3.20;1.30;;;;;;;25.68;20.87;101945.09;4895479;28;20055;-65
2022/08/07 10:01:32;;;;;;;3.70;1.70;;;;;;;26.55;19.60;101940.00;4952007;29;20452;-65
2022/08/07 10:04:46;;;;;;;2.95;1.52;;;;;;;25.52;21.20;101941.06;4951585;28;20047;-65
2022/08/07 10:07:48;;;;;;;14.05;1.50;;;;;;;26.21;19.85;101938.03;4950518;28;20066;-65
2022/08/07 10:10:52;;;;;;;4.18;1.10;;;;;;;25.76;20.52;101935.72;4950614;28;20059;-65
2022/08/07 10:13:57;;;;;;;2.47;1.13;;;;;;;26.21;20.57;101927.88;4948949;28;20039;-66
2022/08/07 10:16:46;;;;;;;3.83;1.08;;;;;;;25.49;20.95;101925.03;4982060;28;20090;-65
2022/08/07 10:19:25;;;;;;;4.25;1.55;;;;;;;25.47;20.96;101921.66;4989571;28;20818;-65
2022/08/07 10:22:10;;;;;;;3.72;1.10;;;;;;;25.44;20.88;101921.28;4996427;28;20046;-66
2022/08/07 10:24:44;;;;;;;4.90;1.17;;;;;;;25.96;20.41;101913.41;5027763;28;20107;-65
2022/08/07 10:27:24;;;;;;;2.20;1.00;;;;;;;26.26;19.98;101907.91;5031793;28;20408;-66
2022/08/07 10:30:31;;;;;;;2.55;0.90;;;;;;;25.72;21.18;101907.84;5024912;28;20046;-65
2022/08/07 10:33:17;;;;;;;2.85;0.82;;;;;;;25.80;19.93;101899.25;4997317;28;20534;-66
2022/08/07 10:35:52;;;;;;;;;;;;;;;26.64;19.08;101895.59;5004225;28;20046;-65
2022/08/07 10:38:28;;;;;;;4.95;1.30;;;;;;;27.01;19.08;101898.94;5012118;28;19972;-65
2022/08/07 10:41:36;;;;;;;2.60;0.90;;;;;;;27.46;18.40;101895.50;5012051;28;20416;-65
2022/08/07 10:44:25;;;;;;;3.42;1.00;;;;;;;27.36;18.76;101887.88;5012880;28;20057;-64
2022/08/07 10:47:23;;;;;;;4.80;1.00;;;;;;;25.15;21.76;101877.91;5011802;28;20072;-65
2022/08/07 10:50:15;;;;;;;2.80;1.17;;;;;;;24.93;20.26;101884.91;5012760;28;20052;-65
2022/08/07 10:53:08;;;;;;;1.58;0.73;;;;;;;26.12;19.75;101881.66;5012001;28;20493;-66
2022/08/07 10:55:45;;;;;;;2.70;1.20;;;;;;;25.69;20.19;101875.34;5012280;28;20133;-67
2022/08/07 10:58:24;;;;;;;2.13;1.05;;;;;;;24.94;21.40;101881.09;5029771;28;20041;-65
2022/08/07 11:01:40;;;;;;;3.95;1.10;;;;;;;23.68;23.24;101877.47;5030638;28;20130;-65
2022/08/07 11:04:48;;;;;;;7.35;1.23;;;;;;;23.85;23.05;101874.22;5030651;28;20094;-66
2022/08/07 11:07:34;;;;;;;5.57;1.52;;;;;;;23.20;24.35;101872.44;5031546;28;20107;-65
2022/08/07 11:10:30;;;;;;;2.63;1.00;;;;;;;22.88;24.50;101867.88;5030615;28;20060;-65
2022/08/07 11:13:19;;;;;;;2.95;1.25;;;;;;;23.46;24.20;101865.16;5031397;28;20041;-65
2022/08/07 11:16:42;;;;;;;4.03;1.20;;;;;;;23.11;23.81;101862.75;5030745;28;20042;-65
2022/08/07 11:19:29;;;;;;;4.82;1.38;;;;;;;22.73;24.80;101852.53;5030971;28;20038;-65
2022/08/07 11:22:14;;;;;;;2.45;1.10;;;;;;;24.50;21.61;101852.00;5031776;28;20057;-65
2022/08/07 11:25:04;;;;;;;2.67;1.40;;;;;;;24.61;21.51;101841.13;5026627;28;20041;-65
2022/08/07 11:27:47;;;;;;;4.03;0.93;;;;;;;24.10;21.92;101847.69;5031861;28;20493;-65
2022/08/07 11:31:10;;;;;;;2.53;1.17;;;;;;;24.67;21.84;101839.38;5030793;28;20412;-65
2022/08/07 11:34:05;;;;;;;3.92;1.65;;;;;;;24.76;22.56;101837.19;5030361;28;20045;-66
2022/08/07 11:37:03;;;;;;;5.38;1.25;;;;;;;25.72;20.92;101833.63;5030212;28;20052;-65
2022/08/07 11:40:08;;;;;;;5.32;1.40;;;;;;;26.69;19.62;101835.13;5031509;28;20069;-65
2022/08/07 11:42:49;;;;;;;4.13;1.27;;;;;;;27.28;19.10;101833.13;5030596;28;20037;-65
2022/08/07 11:45:18;;;;;;;;;;;;;;;27.50;19.25;101831.38;5031177;28;20143;-65
2022/08/07 11:47:54;;;;;;;1.52;1.10;;;;;;;27.27;20.08;101825.91;5030073;28;19921;-65
2022/08/07 11:50:49;;;;;;;4.10;1.10;;;;;;;27.38;20.03;101827.84;5029548;28;20136;-65
2022/08/07 11:53:56;;;;;;;3.70;1.30;;;;;;;27.81;19.11;101826.41;5030098;28;20045;-65
2022/08/07 11:56:47;;;;;;;5.68;1.20;;;;;;;27.47;19.50;101820.00;5030710;28;20141;-66
2022/08/07 11:59:31;;;;;;;1.30;1.00;;;;;;;26.06;21.07;101815.50;5025651;28;20042;-65
2022/08/07 12:02:32;;;;;;;5.55;1.60;;;;;;;25.19;21.50;101817.03;5032709;28;20489;-66
2022/08/07 12:05:04;;;;;;;2.85;1.30;;;;;;;24.68;22.88;101814.47;5035756;28;20465;-65
2022/08/07 12:07:47;;;;;;;;;;;;;;;24.01;23.28;101812.53;5028286;28;20042;-65
2022/08/07 12:10:48;;;;;;;5.00;2.10;;;;;;;23.92;22.85;101810.09;5034352;28;19960;-65
2022/08/07 12:14:00;;;;;;;1.60;1.00;;;;;;;24.00;21.57;101806.22;5034980;28;20049;-65
2022/08/07 12:16:34;;;;;;;3.08;1.10;;;;;;;23.83;22.12;101810.59;5035146;28;20061;-66
2022/08/07 12:19:12;;;;;;;4.88;1.70;;;;;;;23.68;22.84;101803.50;5035644;28;20116;-66
2022/08/07 12:22:07;;;;;;;4.53;1.08;;;;;;;24.08;22.35;101802.38;5033757;28;20045;-65
2022/08/07 12:28:23;;;;;;;2.05;1.20;;;;;;;24.26;22.60;101793.34;5033448;28;20049;-65
2022/08/07 12:31:07;;;;;;;2.27;1.30;;;;;;;24.15;23.24;101790.25;5033965;28;20045;-65
2022/08/07 12:33:35;;;;;;;3.80;1.33;;;;;;;23.35;23.73;101789.19;5034453;28;20264;-66
2022/08/07 12:36:23;;;;;;;6.55;1.70;;;;;;;24.00;23.62;101781.56;5035287;28;20055;-66
2022/08/07 12:39:02;;;;;;;5.05;1.63;;;;;;;23.91;23.01;101778.25;5034449;28;20045;-65
2022/08/07 12:41:36;;;;;;;2.65;1.15;;;;;;;23.71;24.31;101772.91;5032969;28;20116;-65